CheckWX is a tool to help pilots better visualize weather data.  It is not intended as a substitute for an official pre-flight weather briefing.

20:36:44 UTC

KELP METAR
El Paso International Airport
El Paso, Texas, USA
Current

46 mins ago

KELP 181951Z 18008KT 130V200 10SM FEW190 BKN250 14/M13 A2991 RMK AO2 SLP095 T01441133
Observed
Feb-18 @ 19:51 UTC
Wind
  • 180° at 8 KTS
Visibility
10 SM
Flight Rules
VFR
Cloud Levels
  • Few at 19,000' AGL
  • Broken at 25,000' AGL
Temperature
14°C / 57°F
Dewpoint
-13°C / 9°F
Humidity
14%
Altimeter
29.91" Hg
Pressure
1009.5 hPa
Previous

2 hours ago

KELP 181851Z 10006KT 10SM BKN250 13/M12 A2995 RMK AO2 SLP109 T01281122
Observed
Feb-18 @ 18:51 UTC
Wind
  • 100° at 6 KTS
Visibility
10 SM
Flight Rules
VFR
Cloud Levels
  • Broken at 25,000' AGL
Temperature
13°C / 55°F
Dewpoint
-12°C / 10°F
Humidity
16%
Altimeter
29.95" Hg
Pressure
1010.9 hPa
Previous

3 hours ago

KELP 181751Z VRB03KT 10SM FEW180 BKN250 11/M11 A2998 RMK AO2 SLP124 T01111106 10117 20011 58006
Observed
Feb-18 @ 17:51 UTC
Wind
  • Variable at 3 KTS
Visibility
10 SM
Flight Rules
VFR
Cloud Levels
  • Few at 18,000' AGL
  • Broken at 25,000' AGL
Temperature
11°C / 52°F
Dewpoint
-11°C / 12°F
Humidity
20%
Altimeter
29.98" Hg
Pressure
1012.4 hPa